Relevés horaires Matro (Suisse)


Relevés horaires à Matro - Lundi 12 Janv. 2015
Heure UTC1 Température [°C] Vent [km/h] Hum. [%] Pres.4 [hPa] Visi. [Km] Nébu. [octa] Préc.5 [mm] Cond.
2m. Res. Ros. Dir.2 Vit. Moy. Raf.3
23:00 3.5 -0.1 -28.1 SE 14.8 14.8 31.5 8 850(-0.7/3h) -- -- -- --
22:00 2.5 -0.6 -24.8 SE 11.1 14.8 20.4 11 850(-0.3/3h) -- -- -- --
21:00 2.7 -0.3 -27.6 ESE 11.1 20.4 25.9 8 850(0.3/3h) -- -- -- --
20:00 2.7 -0.3 -24.8 SSE 11.1 14.8 18.5 11 850(0.7/3h) -- -- -- --
19:00 2.8 -0.6 -27.9 SSO 13.0 20.4 25.9 8 850(1.2/3h) -- -- -- --
18:00 1.7 -2.9 -26.5 OSO 18.5 27.8 38.9 10 850(1.3/3h) -- -- -- --
17:00 2.9 1.5 -29.2 N 5.6 11.1 22.2 7 850(0.9/3h) -- -- -- --
16:00 3.0 -0.7 -24.5 NNO 14.8 24.1 35.2 11 850(0.2/3h) -- -- -- --
15:00 3.9 -1 -25.5 NO 25.9 27.8 38.9 9 850(-0.3/3h) -- -- -- --
14:00 3.7 -1.1 -27.2 NO 24.1 27.8 38.9 8 850(-0.4/3h) -- -- -- --
13:00 3.6 0.4 -21.8 ONO 13.0 16.7 24.1 13 850(-0.4/3h) -- -- -- --
12:00 2.7 -1.6 -28.3 NO 18.5 35.2 51.9 8 850(0.0/3h) -- -- -- --
11:00 1.7 -2.9 -29.4 NNO 18.5 22.2 31.5 8 850(0.8/3h) -- -- -- --
10:00 1.2 -3.8 -25.0 NNO 20.4 20.4 29.6 12 850(1.4/3h) -- -- -- --
09:00 0.4 -5 -25.3 NNO 22.2 35.2 51.9 12 850(1.5/3h) -- -- -- --
08:00 -0.1 -6.8 -28.6 NNO 31.5 31.5 38.9 9 850(1.1/3h) -- -- -- --
07:00 -1.0 -7.5 -26.9 NNO 27.8 35.2 51.9 12 850(0.6/3h) -- -- -- --
06:00 -1.5 -9.1 -26.7 NO 37.0 42.6 59.3 12 850(-0.1/3h) -- -- -- --
05:00 -3.0 -10.8 -23.1 NNO 33.3 42.6 59.3 19 850(-0.2/3h) -- -- -- --
04:00 -4.6 -13.4 -17.7 NNO 38.9 38.9 46.3 35 850(0.6/3h) -- -- -- --
03:00 -5.4 -13.9 -16.0 NNO 33.3 35.2 57.4 43 850(0.7/3h) -- -- -- --
02:00 -6.3 -14.9 -16.2 NNO 31.5 31.5 48.2 45 850(0.9/3h) -- -- -- --
01:00 -6.7 -15.4 -15.9 NO 31.5 35.2 57.4 48 850(0.4/3h) -- -- -- --
00:00 -7.5 -16.2 -14.4 NNO 29.6 51.9 77.8 58 850(1.1/3h) -- -- -- --

1 Coordinated Universal Time. Actuellement il est 00:00 locale et 22:00 UTC.

2 Le vent souffle depuis la direction indiquée vers la direction oposée.

3 Les rafales max. sont disponible 40 min après l'heure du relevé.

4 Pour les stations d'altitude (plus de 600m) le géopotentiel du niveau le plus proche de la pression obligatoire est indiqué.

5 Les stations disposant d'un diffuseur peuvent indiquer "trace". Cela signifie que des précipitations ont touchés le sol mais que la quantité est inférieure à 0.1 mm.

Copyright

Les données affichées sur cette page sont la propriété exclusive de Météo Suisse.

Récapitulatif de la journée
Température [°C] Vent [km/h] Ensoleillement4 [h] Precipitations totale5 [mm] Pression [Hpa]
Min1 Max.2 Moy.3 Max. Min Max.
-9.5 4.1 28.3 77.8 7 h 24 min 0 850.0 850.0

1 Température minimale relevée entre 18:00 UTC la veille et 18:00 UTC le jour donné.

2 Température maximale relevée entre 06:00 UTC le jour donné et 06:00 UTC le lendemain.

3 Vent moyen de la journée basé sur les relevés horaires.

4 Ensoleillement en heures relevé entre 06:00 UTC la veille et 06:00 UTC le jour donné.

5 Précipitations totales tombées entre 06:00 UTC la jour donné et 06:00 UTC le lendemain.

Graphiques horaires